KAGS METAR and TAF | Updated Today

KAGS METAR

Augusta Regional At Bush Field

Observation time: 17 min. ago

KAGS 301853Z 21009KT 10SM CLR 19/M08 A3012 RMK AO2 SLP200 T01941083

Need help? Read our tutorial on how to read METARs or read the parsed version below.

Augusta Regional At Bush Field (KAGS) METAR

  • Weather conditions on Tue, 30 Nov 2021 18:53:00 +0000 (17 min. ago):
  • Present conditions: Dry
  • Clouds: Clear skies
  • Visibility: 16093 meters
  • Wind: 210 degrees at 9 knots
  • Temperature: 19 celsius
  • Dew point: -8 celsius
  • Pressure: 30.12 inHg
  • Remarks: AO2 SLP200 T01941083


Useful to know...

KAGS TAF

Augusta Regional At Bush Field

KAGS 301730Z 3018/0118 24008KT P6SM SKC FM010000 VRB03KT P6SM SKC
Observation time: 1:40 hr. ago
Need help? Read our tutorial on how to read TAFs or read the parsed version below.

Parsed version of TAF for Augusta Regional At Bush Field (KAGS)

  • From 30 November at 18:00 UTC, to day 01 of the month at 18:00 UTC
  • Clouds: No significant changes expected
  • Wind: 240 degrees at 8
  • From day 1 of the month at 00:00 UTC
  • Clouds: No significant changes expected
  • Wind: Variable at 3

Airports near KAGS

KAIK Weather
Region: Aiken

Aiken Regional Airport

Not found in our database
KBNL Weather
Region: Barnwell

Barnwell Regional Airport

Not found in our database
KDNL Weather
IATA: DNL
Region: Augusta

Daniel Field

Found in our database